sensor_id;sensor_type;location;lat;lon;timestamp;temperature;humidity
38167;DHT22;23980;51.902;12.832;2022-09-12T00:02:11;14.20;62.90
38167;DHT22;23980;51.902;12.832;2022-09-12T00:07:20;14.20;62.90
38167;DHT22;23980;51.902;12.832;2022-09-12T00:12:26;14.10;63.30
38167;DHT22;23980;51.902;12.832;2022-09-12T00:17:29;14.00;63.30
38167;DHT22;23980;51.902;12.832;2022-09-12T00:22:33;14.00;63.10
38167;DHT22;23980;51.902;12.832;2022-09-12T00:27:34;13.90;63.10
38167;DHT22;23980;51.902;12.832;2022-09-12T00:32:34;13.90;63.00
38167;DHT22;23980;51.902;12.832;2022-09-12T00:37:40;13.80;62.90
38167;DHT22;23980;51.902;12.832;2022-09-12T00:42:41;13.70;63.20
38167;DHT22;23980;51.902;12.832;2022-09-12T00:47:43;13.70;63.00
38167;DHT22;23980;51.902;12.832;2022-09-12T00:52:53;13.60;63.00
38167;DHT22;23980;51.902;12.832;2022-09-12T00:58:31;13.60;63.20
38167;DHT22;23980;51.902;12.832;2022-09-12T01:03:33;13.40;62.90
38167;DHT22;23980;51.902;12.832;2022-09-12T01:08:39;13.40;62.90
38167;DHT22;23980;51.902;12.832;2022-09-12T01:13:42;13.30;63.20
38167;DHT22;23980;51.902;12.832;2022-09-12T01:18:57;13.30;63.00
38167;DHT22;23980;51.902;12.832;2022-09-12T01:35:10;13.20;63.50
38167;DHT22;23980;51.902;12.832;2022-09-12T01:40:48;13.10;63.20
38167;DHT22;23980;51.902;12.832;2022-09-12T01:52:03;13.00;63.10
38167;DHT22;23980;51.902;12.832;2022-09-12T01:57:13;12.90;63.30
38167;DHT22;23980;51.902;12.832;2022-09-12T02:02:29;12.90;63.20
38167;DHT22;23980;51.902;12.832;2022-09-12T02:07:52;12.80;63.40
38167;DHT22;23980;51.902;12.832;2022-09-12T02:13:12;12.80;63.00
38167;DHT22;23980;51.902;12.832;2022-09-12T02:18:17;12.70;63.40
38167;DHT22;23980;51.902;12.832;2022-09-12T02:23:22;12.70;63.10
38167;DHT22;23980;51.902;12.832;2022-09-12T02:28:34;12.60;63.10
38167;DHT22;23980;51.902;12.832;2022-09-12T02:38:45;12.60;63.30
38167;DHT22;23980;51.902;12.832;2022-09-12T02:43:57;12.60;63.50
38167;DHT22;23980;51.902;12.832;2022-09-12T02:48:58;12.60;63.80
38167;DHT22;23980;51.902;12.832;2022-09-12T02:53:59;12.70;63.50
38167;DHT22;23980;51.902;12.832;2022-09-12T02:59:04;12.70;63.40
38167;DHT22;23980;51.902;12.832;2022-09-12T03:09:16;12.80;63.40
38167;DHT22;23980;51.902;12.832;2022-09-12T03:24:42;12.90;63.50
38167;DHT22;23980;51.902;12.832;2022-09-12T03:29:49;12.90;63.80
38167;DHT22;23980;51.902;12.832;2022-09-12T03:34:50;13.00;63.60
38167;DHT22;23980;51.902;12.832;2022-09-12T03:39:50;13.00;63.50
38167;DHT22;23980;51.902;12.832;2022-09-12T03:44:51;13.00;63.50
38167;DHT22;23980;51.902;12.832;2022-09-12T03:49:52;13.10;63.60
38167;DHT22;23980;51.902;12.832;2022-09-12T03:54:53;13.10;63.60
38167;DHT22;23980;51.902;12.832;2022-09-12T03:59:53;13.20;63.60
38167;DHT22;23980;51.902;12.832;2022-09-12T04:04:54;13.20;63.60
38167;DHT22;23980;51.902;12.832;2022-09-12T04:09:55;13.30;63.60
38167;DHT22;23980;51.902;12.832;2022-09-12T04:14:55;13.30;63.50
38167;DHT22;23980;51.902;12.832;2022-09-12T04:19:56;13.40;63.60
38167;DHT22;23980;51.902;12.832;2022-09-12T04:24:57;13.40;63.50
38167;DHT22;23980;51.902;12.832;2022-09-12T04:29:58;13.40;63.50
38167;DHT22;23980;51.902;12.832;2022-09-12T04:34:59;13.40;63.40
38167;DHT22;23980;51.902;12.832;2022-09-12T04:40:00;13.30;63.40
38167;DHT22;23980;51.902;12.832;2022-09-12T04:45:01;13.40;63.40
38167;DHT22;23980;51.902;12.832;2022-09-12T04:50:02;13.40;63.40
38167;DHT22;23980;51.902;12.832;2022-09-12T04:55:02;13.30;63.30
38167;DHT22;23980;51.902;12.832;2022-09-12T05:00:03;13.30;63.30
38167;DHT22;23980;51.902;12.832;2022-09-12T05:05:06;13.30;63.30
38167;DHT22;23980;51.902;12.832;2022-09-12T05:10:08;13.20;63.40
38167;DHT22;23980;51.902;12.832;2022-09-12T05:15:09;13.20;63.60
38167;DHT22;23980;51.902;12.832;2022-09-12T05:20:10;13.20;63.60
38167;DHT22;23980;51.902;12.832;2022-09-12T05:25:12;13.30;63.70
38167;DHT22;23980;51.902;12.832;2022-09-12T05:30:12;13.30;63.80
38167;DHT22;23980;51.902;12.832;2022-09-12T05:35:13;13.40;64.00
38167;DHT22;23980;51.902;12.832;2022-09-12T05:40:14;13.40;64.00
38167;DHT22;23980;51.902;12.832;2022-09-12T05:45:17;13.50;64.20
38167;DHT22;23980;51.902;12.832;2022-09-12T05:50:17;13.60;64.30
38167;DHT22;23980;51.902;12.832;2022-09-12T05:55:18;13.60;64.40
38167;DHT22;23980;51.902;12.832;2022-09-12T06:00:19;13.70;64.50
38167;DHT22;23980;51.902;12.832;2022-09-12T06:05:20;13.80;64.60
38167;DHT22;23980;51.902;12.832;2022-09-12T06:10:21;13.90;64.70
38167;DHT22;23980;51.902;12.832;2022-09-12T06:15:22;14.00;64.70
38167;DHT22;23980;51.902;12.832;2022-09-12T06:20:23;14.10;64.70
38167;DHT22;23980;51.902;12.832;2022-09-12T06:25:23;14.30;64.80
38167;DHT22;23980;51.902;12.832;2022-09-12T06:30:24;14.40;64.80
38167;DHT22;23980;51.902;12.832;2022-09-12T06:35:26;14.50;64.90
38167;DHT22;23980;51.902;12.832;2022-09-12T06:45:55;14.80;65.40
38167;DHT22;23980;51.902;12.832;2022-09-12T06:51:06;14.80;64.80
38167;DHT22;23980;51.902;12.832;2022-09-12T06:56:11;14.90;65.00
38167;DHT22;23980;51.902;12.832;2022-09-12T07:01:17;15.00;64.80
38167;DHT22;23980;51.902;12.832;2022-09-12T07:06:20;15.00;64.80
38167;DHT22;23980;51.902;12.832;2022-09-12T07:11:23;15.00;64.60
38167;DHT22;23980;51.902;12.832;2022-09-12T07:16:24;15.10;64.70
38167;DHT22;23980;51.902;12.832;2022-09-12T07:21:25;15.20;64.80
38167;DHT22;23980;51.902;12.832;2022-09-12T07:26:28;15.30;64.70
38167;DHT22;23980;51.902;12.832;2022-09-12T07:31:29;15.40;64.70
38167;DHT22;23980;51.902;12.832;2022-09-12T07:36:29;15.40;64.60
38167;DHT22;23980;51.902;12.832;2022-09-12T07:41:31;15.50;64.60
38167;DHT22;23980;51.902;12.832;2022-09-12T07:46:35;15.50;64.50
38167;DHT22;23980;51.902;12.832;2022-09-12T07:51:36;15.60;64.60
38167;DHT22;23980;51.902;12.832;2022-09-12T07:56:37;15.70;64.40
38167;DHT22;23980;51.902;12.832;2022-09-12T08:01:38;15.70;64.50
38167;DHT22;23980;51.902;12.832;2022-09-12T08:06:39;15.80;64.30
38167;DHT22;23980;51.902;12.832;2022-09-12T08:11:40;15.80;64.30
38167;DHT22;23980;51.902;12.832;2022-09-12T08:16:41;15.90;64.30
38167;DHT22;23980;51.902;12.832;2022-09-12T08:21:42;16.00;64.40
38167;DHT22;23980;51.902;12.832;2022-09-12T08:26:42;16.10;64.80
38167;DHT22;23980;51.902;12.832;2022-09-12T08:31:43;16.10;64.30
38167;DHT22;23980;51.902;12.832;2022-09-12T08:36:44;16.20;64.50
38167;DHT22;23980;51.902;12.832;2022-09-12T08:41:46;16.30;64.50
38167;DHT22;23980;51.902;12.832;2022-09-12T08:52:21;16.50;64.80
38167;DHT22;23980;51.902;12.832;2022-09-12T08:57:23;16.60;64.60
38167;DHT22;23980;51.902;12.832;2022-09-12T09:02:48;16.70;64.50
38167;DHT22;23980;51.902;12.832;2022-09-12T09:14:03;17.00;65.00
38167;DHT22;23980;51.902;12.832;2022-09-12T09:19:33;17.20;65.00
38167;DHT22;23980;51.902;12.832;2022-09-12T09:24:49;17.40;64.90
38167;DHT22;23980;51.902;12.832;2022-09-12T09:29:54;17.60;65.10
38167;DHT22;23980;51.902;12.832;2022-09-12T09:34:57;17.80;65.10
38167;DHT22;23980;51.902;12.832;2022-09-12T09:45:24;18.50;66.80
38167;DHT22;23980;51.902;12.832;2022-09-12T09:50:27;22.00;66.60
38167;DHT22;23980;51.902;12.832;2022-09-12T09:55:38;21.60;64.20
38167;DHT22;23980;51.902;12.832;2022-09-12T10:00:41;21.20;63.30
38167;DHT22;23980;51.902;12.832;2022-09-12T13:11:10;29.10;58.10
38167;DHT22;23980;51.902;12.832;2022-09-12T13:17:13;28.30;60.70
38167;DHT22;23980;51.902;12.832;2022-09-12T13:21:56;28.00;60.40
38167;DHT22;23980;51.902;12.832;2022-09-12T13:26:59;27.70;58.70
38167;DHT22;23980;51.902;12.832;2022-09-12T13:32:00;27.60;59.70
38167;DHT22;23980;51.902;12.832;2022-09-12T13:47:39;27.40;59.70
38167;DHT22;23980;51.902;12.832;2022-09-12T13:52:45;27.10;58.70
38167;DHT22;23980;51.902;12.832;2022-09-12T13:57:59;26.90;58.90
38167;DHT22;23980;51.902;12.832;2022-09-12T14:03:01;26.80;59.60
38167;DHT22;23980;51.902;12.832;2022-09-12T14:08:31;26.60;59.40
38167;DHT22;23980;51.902;12.832;2022-09-12T14:13:33;26.40;59.20
38167;DHT22;23980;51.902;12.832;2022-09-12T14:18:36;26.20;58.70
38167;DHT22;23980;51.902;12.832;2022-09-12T14:23:42;25.90;58.60
38167;DHT22;23980;51.902;12.832;2022-09-12T14:28:45;25.70;58.60
38167;DHT22;23980;51.902;12.832;2022-09-12T14:34:16;25.40;58.30
38167;DHT22;23980;51.902;12.832;2022-09-12T14:39:40;25.20;60.00
38167;DHT22;23980;51.902;12.832;2022-09-12T14:45:00;24.90;58.50
38167;DHT22;23980;51.902;12.832;2022-09-12T14:50:02;24.60;59.50
38167;DHT22;23980;51.902;12.832;2022-09-12T14:55:19;24.40;58.60
38167;DHT22;23980;51.902;12.832;2022-09-12T15:00:23;24.20;59.20
38167;DHT22;23980;51.902;12.832;2022-09-12T15:05:26;24.00;58.90
38167;DHT22;23980;51.902;12.832;2022-09-12T15:15:35;23.60;58.70
38167;DHT22;23980;51.902;12.832;2022-09-12T15:20:56;23.30;59.20
38167;DHT22;23980;51.902;12.832;2022-09-12T15:25:57;23.20;59.80
38167;DHT22;23980;51.902;12.832;2022-09-12T15:36:25;22.90;59.60
38167;DHT22;23980;51.902;12.832;2022-09-12T15:41:32;22.70;59.40
38167;DHT22;23980;51.902;12.832;2022-09-12T15:46:39;22.60;59.80
38167;DHT22;23980;51.902;12.832;2022-09-12T15:51:45;22.40;60.00
38167;DHT22;23980;51.902;12.832;2022-09-12T15:56:46;22.30;59.50
38167;DHT22;23980;51.902;12.832;2022-09-12T16:01:47;22.10;59.50
38167;DHT22;23980;51.902;12.832;2022-09-12T16:06:49;22.00;59.80
38167;DHT22;23980;51.902;12.832;2022-09-12T16:11:59;21.80;59.70
38167;DHT22;23980;51.902;12.832;2022-09-12T16:17:01;21.70;60.10
38167;DHT22;23980;51.902;12.832;2022-09-12T16:22:04;21.50;59.90
38167;DHT22;23980;51.902;12.832;2022-09-12T16:27:05;21.40;60.00
38167;DHT22;23980;51.902;12.832;2022-09-12T16:32:06;21.30;60.00
38167;DHT22;23980;51.902;12.832;2022-09-12T16:37:13;21.10;60.10
38167;DHT22;23980;51.902;12.832;2022-09-12T16:42:15;21.00;60.30
38167;DHT22;23980;51.902;12.832;2022-09-12T16:47:23;20.90;60.00
38167;DHT22;23980;51.902;12.832;2022-09-12T16:52:25;20.80;60.20
38167;DHT22;23980;51.902;12.832;2022-09-12T16:57:29;20.60;60.10
38167;DHT22;23980;51.902;12.832;2022-09-12T17:02:36;20.50;60.30
38167;DHT22;23980;51.902;12.832;2022-09-12T17:07:40;20.30;60.40
38167;DHT22;23980;51.902;12.832;2022-09-12T17:12:50;20.20;60.40
38167;DHT22;23980;51.902;12.832;2022-09-12T17:17:53;20.10;60.60
38167;DHT22;23980;51.902;12.832;2022-09-12T17:22:57;19.90;59.90
38167;DHT22;23980;51.902;12.832;2022-09-12T17:28:03;19.80;60.40
38167;DHT22;23980;51.902;12.832;2022-09-12T17:33:07;19.60;60.40
38167;DHT22;23980;51.902;12.832;2022-09-12T17:38:11;19.50;60.40
38167;DHT22;23980;51.902;12.832;2022-09-12T17:43:13;19.40;60.40
38167;DHT22;23980;51.902;12.832;2022-09-12T17:48:19;19.20;60.30
38167;DHT22;23980;51.902;12.832;2022-09-12T17:53:32;19.10;60.50
38167;DHT22;23980;51.902;12.832;2022-09-12T17:58:50;19.00;60.60
38167;DHT22;23980;51.902;12.832;2022-09-12T18:03:55;18.90;60.60
38167;DHT22;23980;51.902;12.832;2022-09-12T18:09:07;18.70;60.60
38167;DHT22;23980;51.902;12.832;2022-09-12T18:14:09;18.60;60.90
38167;DHT22;23980;51.902;12.832;2022-09-12T18:19:12;18.50;60.40
38167;DHT22;23980;51.902;12.832;2022-09-12T18:24:14;18.40;60.50
38167;DHT22;23980;51.902;12.832;2022-09-12T18:29:29;18.30;60.60
38167;DHT22;23980;51.902;12.832;2022-09-12T18:34:37;18.10;60.70
38167;DHT22;23980;51.902;12.832;2022-09-12T18:39:37;18.00;60.80
38167;DHT22;23980;51.902;12.832;2022-09-12T18:44:52;17.90;60.60
38167;DHT22;23980;51.902;12.832;2022-09-12T18:49:59;17.80;60.90
38167;DHT22;23980;51.902;12.832;2022-09-12T18:55:00;17.70;60.90
38167;DHT22;23980;51.902;12.832;2022-09-12T19:00:01;17.60;60.70
38167;DHT22;23980;51.902;12.832;2022-09-12T19:05:05;17.50;60.80
38167;DHT22;23980;51.902;12.832;2022-09-12T19:10:12;17.40;60.80
38167;DHT22;23980;51.902;12.832;2022-09-12T19:15:12;17.30;61.10
38167;DHT22;23980;51.902;12.832;2022-09-12T19:20:14;17.30;60.90
38167;DHT22;23980;51.902;12.832;2022-09-12T19:25:22;17.20;60.90
38167;DHT22;23980;51.902;12.832;2022-09-12T19:30:23;17.10;61.20
38167;DHT22;23980;51.902;12.832;2022-09-12T19:35:25;17.00;61.00
38167;DHT22;23980;51.902;12.832;2022-09-12T19:40:38;17.00;61.10
38167;DHT22;23980;51.902;12.832;2022-09-12T19:45:45;16.80;61.20
38167;DHT22;23980;51.902;12.832;2022-09-12T19:50:51;16.80;61.30
38167;DHT22;23980;51.902;12.832;2022-09-12T19:56:04;16.70;61.10
38167;DHT22;23980;51.902;12.832;2022-09-12T20:01:21;16.60;61.40
38167;DHT22;23980;51.902;12.832;2022-09-12T20:06:29;16.50;61.30
38167;DHT22;23980;51.902;12.832;2022-09-12T20:11:43;16.50;61.20
38167;DHT22;23980;51.902;12.832;2022-09-12T20:16:44;16.40;61.40
38167;DHT22;23980;51.902;12.832;2022-09-12T20:21:44;16.30;61.10
38167;DHT22;23980;51.902;12.832;2022-09-12T20:26:45;16.20;61.10
38167;DHT22;23980;51.902;12.832;2022-09-12T20:31:46;16.20;61.30
38167;DHT22;23980;51.902;12.832;2022-09-12T20:36:48;16.10;61.20
38167;DHT22;23980;51.902;12.832;2022-09-12T20:41:58;16.00;61.30
38167;DHT22;23980;51.902;12.832;2022-09-12T20:46:59;16.00;61.60
38167;DHT22;23980;51.902;12.832;2022-09-12T20:52:06;15.90;61.20
38167;DHT22;23980;51.902;12.832;2022-09-12T20:57:19;15.80;61.50
38167;DHT22;23980;51.902;12.832;2022-09-12T21:02:20;15.70;61.70
38167;DHT22;23980;51.902;12.832;2022-09-12T21:07:21;15.60;61.30
38167;DHT22;23980;51.902;12.832;2022-09-12T21:12:34;15.50;61.40
38167;DHT22;23980;51.902;12.832;2022-09-12T21:17:38;15.50;61.90
38167;DHT22;23980;51.902;12.832;2022-09-12T21:22:39;15.40;61.60
38167;DHT22;23980;51.902;12.832;2022-09-12T21:27:42;15.30;61.50
38167;DHT22;23980;51.902;12.832;2022-09-12T21:32:43;15.20;61.60
38167;DHT22;23980;51.902;12.832;2022-09-12T21:37:44;15.20;61.60
38167;DHT22;23980;51.902;12.832;2022-09-12T21:42:47;15.10;61.50
38167;DHT22;23980;51.902;12.832;2022-09-12T21:47:48;15.10;61.60
38167;DHT22;23980;51.902;12.832;2022-09-12T21:52:49;15.00;61.60
38167;DHT22;23980;51.902;12.832;2022-09-12T21:57:49;14.90;61.60
38167;DHT22;23980;51.902;12.832;2022-09-12T22:02:50;14.80;61.60
38167;DHT22;23980;51.902;12.832;2022-09-12T22:07:50;14.80;61.70
38167;DHT22;23980;51.902;12.832;2022-09-12T22:12:52;14.80;61.70
38167;DHT22;23980;51.902;12.832;2022-09-12T22:17:53;14.70;61.80
38167;DHT22;23980;51.902;12.832;2022-09-12T22:22:53;14.70;61.80
38167;DHT22;23980;51.902;12.832;2022-09-12T22:28:13;14.70;61.90
38167;DHT22;23980;51.902;12.832;2022-09-12T22:33:13;14.70;61.80
38167;DHT22;23980;51.902;12.832;2022-09-12T22:38:14;14.70;61.90
38167;DHT22;23980;51.902;12.832;2022-09-12T22:43:14;14.60;61.80
38167;DHT22;23980;51.902;12.832;2022-09-12T22:48:15;14.60;61.90
38167;DHT22;23980;51.902;12.832;2022-09-12T22:53:16;14.60;61.80
38167;DHT22;23980;51.902;12.832;2022-09-12T22:58:17;14.50;61.80
38167;DHT22;23980;51.902;12.832;2022-09-12T23:03:19;14.50;61.90
38167;DHT22;23980;51.902;12.832;2022-09-12T23:08:19;14.40;61.90
38167;DHT22;23980;51.902;12.832;2022-09-12T23:13:20;14.40;61.80
38167;DHT22;23980;51.902;12.832;2022-09-12T23:18:20;14.30;61.80
38167;DHT22;23980;51.902;12.832;2022-09-12T23:23:22;14.20;61.80
38167;DHT22;23980;51.902;12.832;2022-09-12T23:28:23;14.20;61.80
38167;DHT22;23980;51.902;12.832;2022-09-12T23:33:23;14.10;61.80
38167;DHT22;23980;51.902;12.832;2022-09-12T23:38:24;14.00;61.90
38167;DHT22;23980;51.902;12.832;2022-09-12T23:43:25;14.00;61.90
38167;DHT22;23980;51.902;12.832;2022-09-12T23:48:26;13.90;61.90
38167;DHT22;23980;51.902;12.832;2022-09-12T23:53:28;13.90;62.10
38167;DHT22;23980;51.902;12.832;2022-09-12T23:58:29;13.90;62.20
